Time;durP1;ratioP1;P1;durP2;ratioP2;P2;SDS_P1;SDS_P2;PMS_P1;PMS_P2;Temp;Humidity;BMP_temperature;BMP_pressure;BME280_temperature;BME280_humidity;BME280_pressure;Samples;Min_cycle;Max_cycle;Signal;HPM_P1;HPM_P2
2023/08/30 00:01:04;;;;;;;0.60;0.60;;;14.00;99.90;;;;;;5129975;27;20407;-87
2023/08/30 00:03:30;;;;;;;0.60;0.60;;;14.00;99.90;;;;;;5105525;27;20038;-88
2023/08/30 00:05:55;;;;;;;0.55;0.55;;;14.00;99.90;;;;;;5124268;27;20419;-87
2023/08/30 00:08:21;;;;;;;0.52;0.52;;;13.90;99.90;;;;;;5106794;27;20085;-87
2023/08/30 00:10:47;;;;;;;0.60;0.60;;;13.90;99.90;;;;;;5128479;27;20095;-88
2023/08/30 00:13:13;;;;;;;0.60;0.60;;;13.70;99.90;;;;;;5113557;27;20042;-87
2023/08/30 00:15:38;;;;;;;0.60;0.60;;;13.70;99.90;;;;;;5123102;27;20050;-87
2023/08/30 00:18:05;;;;;;;0.60;0.60;;;13.80;99.90;;;;;;5127714;27;20051;-86
2023/08/30 00:20:31;;;;;;;0.60;0.60;;;13.80;99.90;;;;;;5120669;27;20046;-87
2023/08/30 00:22:56;;;;;;;0.60;0.60;;;13.70;99.90;;;;;;5112299;27;20091;-86
2023/08/30 00:25:22;;;;;;;0.60;0.60;;;13.70;99.90;;;;;;5137720;27;20413;-88
2023/08/30 00:27:51;;;;;;;0.60;0.60;;;13.60;99.90;;;;;;5112682;27;20038;-89
2023/08/30 00:30:16;;;;;;;0.60;0.60;;;13.60;99.90;;;;;;5126527;27;20125;-88
2023/08/30 00:32:44;;;;;;;0.60;0.60;;;13.60;99.90;;;;;;5127389;27;20031;-88
2023/08/30 00:35:10;;;;;;;0.60;0.60;;;13.60;99.90;;;;;;5109909;27;20046;-87
2023/08/30 00:37:36;;;;;;;0.60;0.60;;;13.60;99.90;;;;;;5101679;27;20054;-88
2023/08/30 00:40:01;;;;;;;0.60;0.60;;;13.50;99.90;;;;;;5105889;27;20122;-87
2023/08/30 00:42:27;;;;;;;0.60;0.60;;;13.50;99.90;;;;;;5127732;27;20128;-88
2023/08/30 00:44:53;;;;;;;0.50;0.50;;;13.50;99.90;;;;;;5112514;27;20039;-88
2023/08/30 00:47:21;;;;;;;0.52;0.52;;;13.40;99.90;;;;;;5108414;27;20153;-87
2023/08/30 00:49:52;;;;;;;0.50;0.50;;;13.30;99.90;;;;;;5124347;27;20038;-87
2023/08/30 00:52:21;;;;;;;0.50;0.50;;;13.20;99.90;;;;;;5128536;27;20078;-88
2023/08/30 00:54:47;;;;;;;0.50;0.50;;;13.20;99.90;;;;;;5109169;27;20057;-88
2023/08/30 00:57:12;;;;;;;0.50;0.50;;;13.30;99.90;;;;;;5124653;27;20479;-87
2023/08/30 00:59:38;;;;;;;0.60;0.60;;;13.30;99.90;;;;;;5127133;27;20091;-87
2023/08/30 01:02:04;;;;;;;0.60;0.60;;;13.30;99.90;;;;;;5122174;27;20670;-86
2023/08/30 01:04:30;;;;;;;0.60;0.60;;;13.20;99.90;;;;;;5128681;27;20035;-88
2023/08/30 01:06:56;;;;;;;0.60;0.60;;;13.30;99.90;;;;;;5126288;27;20442;-88
2023/08/30 01:09:22;;;;;;;0.60;0.60;;;13.40;99.90;;;;;;5104623;27;20081;-89
2023/08/30 01:12:01;;;;;;;0.60;0.60;;;13.30;99.90;;;;;;5123547;27;20074;-89
2023/08/30 01:14:51;;;;;;;0.50;0.50;;;13.30;99.90;;;;;;5124625;27;20046;-88
2023/08/30 01:17:20;;;;;;;0.60;0.60;;;13.10;99.90;;;;;;5127216;27;20050;-88
2023/08/30 01:20:21;;;;;;;0.60;0.60;;;13.20;99.90;;;;;;5107176;27;20047;-88
2023/08/30 01:23:12;;;;;;;0.60;0.60;;;13.10;99.90;;;;;;5109862;27;20065;-87
2023/08/30 01:26:02;;;;;;;0.60;0.60;;;13.00;99.90;;;;;;5146320;27;21387;-89
2023/08/30 01:28:31;;;;;;;0.60;0.60;;;13.00;99.90;;;;;;5110775;27;20031;-88
2023/08/30 01:31:00;;;;;;;0.60;0.60;;;12.90;99.90;;;;;;5126775;27;20050;-92
2023/08/30 01:33:27;;;;;;;0.60;0.60;;;13.00;99.90;;;;;;5108030;27;20054;-87
2023/08/30 01:35:58;;;;;;;0.60;0.60;;;13.00;99.90;;;;;;5125501;27;20122;-88
2023/08/30 01:38:27;;;;;;;0.60;0.60;;;12.90;99.90;;;;;;5131124;27;20039;-90
2023/08/30 01:40:54;;;;;;;0.60;0.60;;;12.90;99.90;;;;;;5112934;27;20674;-87
2023/08/30 01:43:33;;;;;;;0.70;0.70;;;12.90;99.90;;;;;;5123725;27;20039;-89
2023/08/30 01:46:00;;;;;;;0.60;0.60;;;12.90;99.90;;;;;;5104082;27;20185;-89
2023/08/30 01:48:27;;;;;;;0.70;0.70;;;12.90;99.90;;;;;;5123516;27;20030;-90
2023/08/30 01:50:58;;;;;;;0.60;0.60;;;12.80;99.90;;;;;;5106078;27;20039;-88
2023/08/30 01:53:25;;;;;;;0.60;0.60;;;12.80;99.90;;;;;;5122402;27;20047;-90
2023/08/30 01:55:50;;;;;;;0.70;0.70;;;12.80;99.90;;;;;;5131262;27;20034;-88
2023/08/30 01:58:16;;;;;;;0.60;0.60;;;12.80;99.90;;;;;;5110361;27;20042;-89
2023/08/30 02:00:42;;;;;;;0.70;0.70;;;12.90;99.90;;;;;;5108030;27;20047;-90
2023/08/30 02:03:11;;;;;;;0.60;0.60;;;12.80;99.90;;;;;;5108288;27;20042;-89
2023/08/30 02:05:44;;;;;;;0.65;0.65;;;12.80;99.90;;;;;;5127718;27;20106;-87
2023/08/30 02:08:16;;;;;;;0.70;0.70;;;12.80;99.90;;;;;;5124423;27;20051;-88
2023/08/30 02:10:51;;;;;;;0.60;0.60;;;12.90;99.90;;;;;;5120882;27;20080;-87
2023/08/30 02:13:26;;;;;;;0.70;0.70;;;12.70;99.90;;;;;;5124177;27;20377;-87
2023/08/30 02:15:56;;;;;;;0.68;0.68;;;12.80;99.90;;;;;;5126623;27;20046;-88
2023/08/30 02:18:23;;;;;;;0.70;0.70;;;12.80;99.90;;;;;;5109276;27;20138;-89
2023/08/30 02:20:49;;;;;;;0.65;0.65;;;12.80;99.90;;;;;;5106009;27;20062;-89
2023/08/30 02:23:15;;;;;;;0.60;0.60;;;12.80;99.90;;;;;;5125363;27;20047;-88
2023/08/30 02:25:40;;;;;;;0.63;0.63;;;12.80;99.90;;;;;;5132238;27;20038;-90
2023/08/30 02:28:06;;;;;;;0.60;0.60;;;12.70;99.90;;;;;;5109998;27;20066;-87
2023/08/30 02:30:32;;;;;;;0.60;0.60;;;12.70;99.90;;;;;;5131028;27;20043;-89
2023/08/30 02:33:00;;;;;;;0.60;0.60;;;12.50;99.90;;;;;;5107443;27;20151;-88
2023/08/30 02:35:26;;;;;;;0.63;0.63;;;12.50;99.90;;;;;;5125619;27;20129;-87
2023/08/30 02:37:51;;;;;;;0.63;0.63;;;12.50;99.90;;;;;;5122508;27;20126;-88
2023/08/30 02:40:23;;;;;;;0.60;0.60;;;12.60;99.90;;;;;;5118529;27;20054;-87
2023/08/30 02:42:51;;;;;;;0.60;0.60;;;12.40;99.90;;;;;;5121779;27;20107;-89
2023/08/30 02:45:17;;;;;;;0.68;0.68;;;12.20;99.90;;;;;;5127238;27;20593;-88
2023/08/30 02:47:45;;;;;;;0.60;0.60;;;12.10;99.90;;;;;;5129010;27;20117;-87
2023/08/30 02:50:11;;;;;;;0.70;0.70;;;12.10;99.90;;;;;;5112207;27;20647;-87
2023/08/30 02:52:36;;;;;;;0.60;0.60;;;12.00;99.90;;;;;;5126392;27;20043;-88
2023/08/30 02:55:03;;;;;;;0.68;0.68;;;12.00;99.90;;;;;;5104760;27;20125;-87
2023/08/30 02:57:31;;;;;;;0.70;0.70;;;12.00;99.90;;;;;;5126386;27;20518;-87
2023/08/30 02:59:57;;;;;;;0.70;0.70;;;11.90;99.90;;;;;;5107911;27;20039;-88
2023/08/30 03:02:23;;;;;;;0.63;0.63;;;11.80;99.90;;;;;;5121534;27;20568;-87
2023/08/30 03:04:51;;;;;;;0.70;0.70;;;11.90;99.90;;;;;;5106898;27;20046;-88
2023/08/30 03:07:17;;;;;;;0.68;0.68;;;11.80;99.90;;;;;;5098266;27;20091;-87
2023/08/30 03:09:42;;;;;;;0.70;0.70;;;11.80;99.90;;;;;;5120620;27;20482;-88
2023/08/30 03:12:08;;;;;;;0.70;0.70;;;12.10;99.90;;;;;;5103804;27;20080;-89
2023/08/30 03:14:34;;;;;;;0.70;0.70;;;12.00;99.90;;;;;;5102599;27;20043;-88
2023/08/30 03:16:59;;;;;;;0.70;0.70;;;12.10;99.90;;;;;;5119872;27;20551;-87
2023/08/30 03:19:25;;;;;;;0.70;0.70;;;12.30;99.90;;;;;;5123788;27;20071;-87
2023/08/30 03:21:50;;;;;;;0.70;0.70;;;12.40;99.90;;;;;;5104237;27;20046;-88
2023/08/30 03:24:17;;;;;;;0.75;0.75;;;12.50;99.90;;;;;;5120862;27;20042;-86
2023/08/30 03:26:43;;;;;;;0.70;0.70;;;12.40;99.90;;;;;;5121264;27;20048;-87
2023/08/30 03:29:15;;;;;;;0.70;0.70;;;12.60;99.90;;;;;;5123096;27;20415;-87
2023/08/30 03:31:43;;;;;;;0.80;0.80;;;12.70;99.90;;;;;;5117968;27;20484;-87
2023/08/30 03:34:09;;;;;;;0.80;0.80;;;12.50;99.90;;;;;;5123754;27;20039;-88
2023/08/30 03:36:38;;;;;;;0.70;0.70;;;12.50;99.90;;;;;;5106782;27;20142;-87
2023/08/30 03:39:03;;;;;;;0.70;0.70;;;12.60;99.90;;;;;;5122030;27;20054;-87
2023/08/30 03:41:29;;;;;;;0.70;0.70;;;12.50;99.90;;;;;;5126269;27;20039;-89
2023/08/30 03:43:55;;;;;;;0.80;0.80;;;12.50;99.90;;;;;;5127381;27;20505;-86
2023/08/30 03:46:20;;;;;;;0.70;0.70;;;12.60;99.90;;;;;;5126598;27;20047;-85
2023/08/30 03:48:49;;;;;;;0.77;0.77;;;12.40;99.90;;;;;;5121814;27;20097;-89
2023/08/30 03:51:15;;;;;;;0.75;0.75;;;12.50;99.90;;;;;;5126840;27;20102;-87
2023/08/30 03:53:43;;;;;;;0.70;0.70;;;12.50;99.90;;;;;;5123800;27;20123;-88
2023/08/30 03:56:09;;;;;;;0.80;0.80;;;12.20;99.90;;;;;;5106165;27;20548;-87
2023/08/30 03:58:37;;;;;;;0.75;0.75;;;12.10;99.90;;;;;;5124601;27;20043;-89
2023/08/30 04:01:09;;;;;;;0.70;0.70;;;12.10;99.90;;;;;;5106329;27;20166;-89
2023/08/30 04:03:40;;;;;;;0.80;0.80;;;12.00;99.90;;;;;;5119754;27;20050;-88
2023/08/30 04:06:05;;;;;;;0.80;0.80;;;11.80;99.90;;;;;;5135852;27;20121;-88
2023/08/30 04:08:32;;;;;;;0.80;0.80;;;11.80;99.90;;;;;;5111348;27;20051;-87
2023/08/30 04:10:57;;;;;;;0.90;0.90;;;12.10;99.90;;;;;;5123026;27;20499;-88
2023/08/30 04:13:35;;;;;;;0.70;0.70;;;12.20;99.90;;;;;;5121735;27;20070;-88
2023/08/30 04:16:03;;;;;;;0.80;0.80;;;12.30;99.90;;;;;;5127572;27;20063;-87
2023/08/30 04:18:29;;;;;;;0.73;0.73;;;12.20;99.90;;;;;;5102813;27;20475;-87
2023/08/30 04:21:02;;;;;;;0.70;0.70;;;12.20;99.90;;;;;;5128133;27;20078;-89
2023/08/30 04:23:31;;;;;;;0.80;0.80;;;12.20;99.90;;;;;;5131678;27;20438;-90
2023/08/30 04:25:56;;;;;;;0.80;0.80;;;12.10;99.90;;;;;;5127651;27;20540;-89
2023/08/30 04:28:22;;;;;;;0.77;0.77;;;12.10;99.90;;;;;;5113956;27;20046;-88
2023/08/30 04:30:53;;;;;;;0.80;0.80;;;12.20;99.90;;;;;;5131030;27;20392;-92
2023/08/30 04:33:19;;;;;;;0.80;0.80;;;12.10;99.90;;;;;;5129528;27;20122;-88
2023/08/30 04:35:57;;;;;;;0.70;0.70;;;12.20;99.90;;;;;;5102840;27;20137;-88
2023/08/30 04:38:22;;;;;;;0.80;0.80;;;12.40;99.90;;;;;;5133198;27;20042;-88
2023/08/30 04:40:58;;;;;;;0.90;0.90;;;12.30;99.90;;;;;;5109559;27;20080;-88
2023/08/30 04:43:23;;;;;;;0.80;0.80;;;12.20;99.90;;;;;;5118414;27;20039;-87
2023/08/30 04:45:49;;;;;;;0.75;0.75;;;12.30;99.90;;;;;;5124122;27;20057;-87
2023/08/30 04:48:15;;;;;;;0.80;0.80;;;12.20;99.90;;;;;;5126637;27;20046;-86
2023/08/30 04:50:40;;;;;;;0.80;0.80;;;12.20;99.90;;;;;;5143831;27;20078;-87
2023/08/30 04:53:06;;;;;;;0.70;0.70;;;12.20;99.90;;;;;;5125519;27;20030;-86
2023/08/30 04:55:35;;;;;;;0.70;0.70;;;12.20;99.90;;;;;;5122443;27;20039;-87
2023/08/30 04:58:01;;;;;;;0.70;0.70;;;12.10;99.90;;;;;;5127085;27;20034;-87
2023/08/30 05:00:26;;;;;;;0.80;0.80;;;12.30;99.90;;;;;;5118663;27;20066;-87
2023/08/30 05:02:52;;;;;;;0.77;0.77;;;12.30;99.90;;;;;;5125036;27;20088;-88
2023/08/30 05:05:35;;;;;;;0.70;0.70;;;12.30;99.90;;;;;;5128098;27;20050;-88
2023/08/30 05:08:04;;;;;;;0.80;0.80;;;12.50;99.90;;;;;;5123984;27;20541;-90
2023/08/30 05:10:29;;;;;;;0.80;0.80;;;12.40;99.90;;;;;;5107953;27;20099;-85
2023/08/30 05:12:55;;;;;;;0.80;0.80;;;12.40;99.90;;;;;;5127751;27;20050;-86
2023/08/30 05:15:21;;;;;;;0.70;0.70;;;12.50;99.90;;;;;;5128360;27;20046;-88
2023/08/30 05:17:47;;;;;;;0.70;0.70;;;12.50;99.90;;;;;;5128600;27;20113;-87
2023/08/30 05:20:13;;;;;;;0.73;0.73;;;12.50;99.90;;;;;;5130109;27;20043;-88
2023/08/30 05:22:39;;;;;;;0.80;0.80;;;12.60;99.90;;;;;;5105977;27;20051;-88
2023/08/30 05:25:04;;;;;;;0.80;0.80;;;12.70;99.90;;;;;;5124264;27;20807;-87
2023/08/30 05:27:30;;;;;;;0.70;0.70;;;12.70;99.90;;;;;;5128181;27;20130;-90
2023/08/30 05:29:56;;;;;;;0.80;0.80;;;12.70;99.90;;;;;;5144568;27;20114;-90
2023/08/30 05:32:22;;;;;;;0.77;0.77;;;12.80;99.90;;;;;;5122969;27;20050;-88
2023/08/30 05:34:47;;;;;;;0.80;0.80;;;12.90;99.90;;;;;;5129244;27;20487;-89
2023/08/30 05:37:13;;;;;;;0.80;0.80;;;12.90;99.90;;;;;;5106532;27;20064;-87
2023/08/30 05:39:39;;;;;;;0.80;0.80;;;12.90;99.90;;;;;;5112671;27;20099;-89
2023/08/30 05:42:05;;;;;;;0.80;0.80;;;13.00;99.90;;;;;;5111056;27;20050;-88
2023/08/30 05:44:30;;;;;;;0.82;0.82;;;13.10;99.90;;;;;;5124702;27;20039;-88
2023/08/30 05:46:56;;;;;;;0.80;0.80;;;13.20;99.90;;;;;;5109311;27;20055;-89
2023/08/30 05:49:22;;;;;;;0.90;0.90;;;13.30;99.90;;;;;;5108452;27;20054;-88
2023/08/30 05:51:48;;;;;;;0.82;0.82;;;13.20;99.90;;;;;;5127464;27;20038;-88
2023/08/30 05:54:14;;;;;;;0.80;0.80;;;13.30;99.90;;;;;;5115539;27;20047;-89
2023/08/30 05:56:39;;;;;;;0.80;0.80;;;13.30;99.90;;;;;;5108125;27;20518;-90
2023/08/30 05:59:05;;;;;;;0.80;0.80;;;13.50;99.90;;;;;;5108490;27;20047;-88
2023/08/30 06:01:30;;;;;;;0.80;0.80;;;13.50;99.90;;;;;;5105943;27;20135;-88
2023/08/30 06:03:56;;;;;;;0.80;0.80;;;13.50;99.90;;;;;;5123523;27;20038;-88
2023/08/30 06:06:22;;;;;;;0.73;0.73;;;13.70;99.90;;;;;;5108455;27;20039;-88
2023/08/30 06:08:51;;;;;;;0.80;0.80;;;13.70;99.90;;;;;;5102833;27;20039;-87
2023/08/30 06:11:16;;;;;;;0.75;0.75;;;13.80;99.90;;;;;;5144193;27;20131;-87
2023/08/30 06:13:42;;;;;;;0.77;0.77;;;13.90;99.90;;;;;;5103310;27;20080;-89
2023/08/30 06:16:08;;;;;;;0.85;0.85;;;13.90;99.90;;;;;;5112511;27;20575;-90
2023/08/30 06:18:33;;;;;;;0.82;0.82;;;14.00;99.90;;;;;;5129420;27;20039;-88
2023/08/30 06:20:59;;;;;;;0.88;0.88;;;14.00;99.90;;;;;;5107956;27;20387;-87
2023/08/30 06:23:25;;;;;;;0.98;0.98;;;14.00;99.90;;;;;;5123238;27;20488;-88
2023/08/30 06:25:57;;;;;;;0.90;0.90;;;14.10;99.90;;;;;;5126041;27;20042;-88
2023/08/30 06:28:23;;;;;;;0.88;0.88;;;14.20;99.90;;;;;;5120410;27;20047;-90
2023/08/30 06:30:52;;;;;;;0.98;0.98;;;14.20;99.90;;;;;;5124249;27;20129;-90
2023/08/30 06:33:20;;;;;;;0.95;0.95;;;14.30;99.90;;;;;;5112519;27;20045;-91
2023/08/30 06:35:50;;;;;;;1.38;1.33;;;14.40;99.90;;;;;;5108872;27;20058;-87
2023/08/30 06:38:16;;;;;;;1.17;1.17;;;14.40;99.90;;;;;;5115429;27;20092;-90
2023/08/30 06:40:46;;;;;;;1.27;1.25;;;14.40;99.90;;;;;;5114419;27;20050;-90
2023/08/30 06:43:12;;;;;;;1.30;1.27;;;14.60;99.90;;;;;;5127143;27;20124;-89
2023/08/30 06:45:47;;;;;;;1.48;1.40;;;14.70;99.90;;;;;;5118875;27;20043;-91
2023/08/30 06:48:13;;;;;;;1.42;1.38;;;14.70;99.90;;;;;;5112169;27;20034;-90
2023/08/30 06:50:39;;;;;;;1.60;1.50;;;14.80;99.90;;;;;;5113267;27;20043;-91
2023/08/30 06:53:04;;;;;;;1.63;1.52;;;15.00;99.90;;;;;;5129635;27;20038;-91
2023/08/30 06:55:32;;;;;;;1.60;1.50;;;15.00;99.90;;;;;;5112538;27;20107;-91
2023/08/30 06:57:57;;;;;;;1.70;1.60;;;15.30;99.90;;;;;;5111646;27;20122;-93
2023/08/30 07:00:23;;;;;;;1.55;1.45;;;15.40;99.90;;;;;;5113394;27;20130;-90
2023/08/30 07:02:49;;;;;;;1.58;1.48;;;15.50;99.90;;;;;;5128649;27;20031;-94
2023/08/30 07:05:15;;;;;;;1.73;1.63;;;15.60;99.90;;;;;;5127158;27;20100;-91
2023/08/30 07:07:40;;;;;;;1.65;1.55;;;15.70;99.90;;;;;;5129415;27;20531;-88
2023/08/30 07:10:19;;;;;;;1.40;1.35;;;15.70;99.90;;;;;;5126963;27;20042;-92
2023/08/30 07:12:48;;;;;;;1.33;1.30;;;15.90;99.90;;;;;;5113135;27;20047;-89
2023/08/30 07:15:17;;;;;;;1.30;1.27;;;16.10;99.90;;;;;;5106431;27;20151;-88
2023/08/30 07:17:42;;;;;;;1.20;1.20;;;16.40;99.90;;;;;;5113690;27;20115;-88
2023/08/30 07:20:12;;;;;;;1.02;1.02;;;16.70;99.90;;;;;;5103802;27;20038;-91
2023/08/30 07:22:37;;;;;;;0.90;0.90;;;17.00;99.90;;;;;;5122973;27;20053;-88
2023/08/30 07:25:03;;;;;;;0.80;0.80;;;17.30;99.90;;;;;;5125080;27;20039;-87
2023/08/30 07:27:29;;;;;;;0.70;0.70;;;17.40;99.90;;;;;;5128814;27;20050;-87
2023/08/30 07:29:54;;;;;;;0.77;0.77;;;17.50;99.90;;;;;;5124808;27;20042;-91
2023/08/30 07:32:23;;;;;;;0.70;0.70;;;17.60;99.90;;;;;;5125742;27;20054;-88
2023/08/30 07:34:52;;;;;;;0.75;0.75;;;17.70;99.90;;;;;;5131677;27;20399;-89
2023/08/30 07:37:24;;;;;;;0.82;0.82;;;17.70;99.90;;;;;;5105711;27;20046;-90
2023/08/30 07:39:51;;;;;;;1.63;1.52;;;17.30;99.90;;;;;;5111272;27;20039;-90
2023/08/30 07:42:26;;;;;;;1.60;1.50;;;17.20;99.90;;;;;;5106942;27;20097;-95
2023/08/30 07:44:59;;;;;;;1.30;1.30;;;17.10;99.90;;;;;;5129322;27;20043;-94
2023/08/30 07:47:25;;;;;;;1.13;1.13;;;17.00;99.90;;;;;;5097514;27;20054;-89
2023/08/30 07:49:55;;;;;;;1.38;1.35;;;16.90;99.90;;;;;;5114915;27;20042;-95
2023/08/30 07:52:21;;;;;;;1.20;1.20;;;16.90;99.90;;;;;;5109596;27;20047;-93
2023/08/30 07:54:47;;;;;;;1.23;1.23;;;16.80;99.90;;;;;;5115896;27;20126;-88
2023/08/30 07:57:13;;;;;;;1.20;1.20;;;16.90;99.90;;;;;;5126278;27;20156;-91
2023/08/30 07:59:42;;;;;;;1.20;1.20;;;16.90;99.90;;;;;;5128874;27;20484;-90
2023/08/30 08:02:08;;;;;;;1.23;1.23;;;17.00;99.90;;;;;;5108230;27;20039;-92
2023/08/30 08:04:34;;;;;;;1.20;1.20;;;17.20;99.90;;;;;;5137875;27;20051;-94
2023/08/30 08:07:00;;;;;;;1.17;1.17;;;17.60;99.90;;;;;;5107889;27;20047;-90
2023/08/30 08:09:29;;;;;;;1.10;1.10;;;17.70;99.90;;;;;;5127008;27;20056;-91
2023/08/30 08:11:56;;;;;;;1.00;1.00;;;17.90;99.90;;;;;;5107257;27;20047;-90
2023/08/30 08:14:29;;;;;;;1.02;1.02;;;18.00;99.90;;;;;;5111614;27;20042;-94
2023/08/30 08:17:04;;;;;;;1.00;1.00;;;18.20;99.90;;;;;;5116026;27;20041;-91
2023/08/30 08:19:29;;;;;;;1.00;1.00;;;18.70;99.90;;;;;;5113282;27;20054;-84
2023/08/30 08:21:55;;;;;;;1.20;1.20;;;18.90;99.90;;;;;;5129748;27;20063;-87
2023/08/30 08:24:21;;;;;;;1.75;1.65;;;19.00;99.90;;;;;;5128112;27;20047;-92
2023/08/30 08:26:47;;;;;;;1.80;1.70;;;19.20;99.90;;;;;;5131216;27;20491;-87
2023/08/30 08:29:16;;;;;;;1.55;1.45;;;19.10;99.90;;;;;;5128809;27;20053;-87
2023/08/30 08:31:41;;;;;;;0.90;0.90;;;18.40;99.90;;;;;;5111798;27;20054;-87
2023/08/30 08:34:20;;;;;;;0.80;0.80;;;18.30;99.90;;;;;;5110012;27;20115;-91
2023/08/30 08:36:49;;;;;;;0.70;0.70;;;18.40;99.90;;;;;;5114079;27;20066;-94
2023/08/30 08:39:18;;;;;;;0.80;0.80;;;18.40;99.90;;;;;;5131217;27;20612;-86
2023/08/30 08:41:47;;;;;;;0.80;0.80;;;18.20;99.90;;;;;;5112425;27;20038;-92
2023/08/30 08:44:26;;;;;;;0.80;0.80;;;17.80;99.90;;;;;;5107099;27;20043;-95
2023/08/30 08:46:57;;;;;;;0.90;0.90;;;17.60;99.90;;;;;;5127956;27;20500;-95
2023/08/30 08:49:25;;;;;;;1.00;1.00;;;17.60;99.90;;;;;;5131391;27;21124;-88
2023/08/30 08:51:51;;;;;;;1.00;1.00;;;17.40;99.90;;;;;;5124527;27;20039;-89
2023/08/30 08:54:20;;;;;;;0.80;0.80;;;17.30;99.90;;;;;;5133936;27;20039;-90
2023/08/30 08:56:46;;;;;;;1.13;1.13;;;17.30;99.90;;;;;;5107736;27;20042;-89
2023/08/30 08:59:24;;;;;;;1.10;1.10;;;17.40;99.90;;;;;;5124954;27;20070;-94
2023/08/30 09:01:50;;;;;;;1.15;1.15;;;17.30;99.90;;;;;;5124197;27;21786;-89
2023/08/30 09:04:25;;;;;;;1.30;1.30;;;17.30;99.90;;;;;;5108665;27;20047;-93
2023/08/30 09:06:55;;;;;;;1.05;1.05;;;17.30;99.90;;;;;;5113138;27;20040;-95
2023/08/30 09:09:24;;;;;;;1.48;1.40;;;17.40;99.90;;;;;;5125603;27;20046;-93
2023/08/30 09:11:53;;;;;;;1.38;1.33;;;17.30;99.90;;;;;;5125576;27;20034;-91
2023/08/30 09:14:22;;;;;;;1.42;1.38;;;17.40;99.90;;;;;;5114623;27;20038;-88
2023/08/30 09:17:02;;;;;;;1.20;1.20;;;17.30;99.90;;;;;;5115606;27;20035;-92
2023/08/30 09:19:29;;;;;;;1.33;1.33;;;17.20;99.90;;;;;;5116416;27;20046;-90
2023/08/30 09:22:01;;;;;;;1.65;1.55;;;17.00;99.90;;;;;;5112835;27;20102;-95
2023/08/30 09:24:39;;;;;;;1.50;1.40;;;16.90;99.90;;;;;;5115613;27;20476;-93
2023/08/30 09:27:04;;;;;;;1.50;1.40;;;16.90;99.90;;;;;;5131545;27;20079;-93
2023/08/30 09:29:31;;;;;;;1.45;1.40;;;16.80;99.90;;;;;;5110143;27;20043;-89
2023/08/30 09:31:57;;;;;;;1.50;1.40;;;16.70;99.90;;;;;;5107447;27;20054;-89
2023/08/30 09:34:26;;;;;;;1.88;1.77;;;16.60;99.90;;;;;;5128441;27;21637;-96
2023/08/30 09:36:53;;;;;;;1.58;1.48;;;16.50;99.90;;;;;;5117820;27;20042;-88
2023/08/30 09:39:19;;;;;;;1.80;1.70;;;16.40;99.90;;;;;;5129244;27;20051;-89
2023/08/30 09:41:49;;;;;;;1.50;1.40;;;16.20;99.90;;;;;;5111546;27;20337;-91
2023/08/30 09:44:17;;;;;;;1.65;1.55;;;16.10;99.90;;;;;;5106728;27;20047;-88
2023/08/30 09:46:44;;;;;;;1.70;1.60;;;16.10;99.90;;;;;;5128719;27;20050;-93
2023/08/30 09:49:10;;;;;;;1.55;1.45;;;15.90;99.90;;;;;;5126967;27;20043;-89
2023/08/30 09:51:41;;;;;;;1.13;1.13;;;16.00;99.90;;;;;;5103359;27;20529;-89
2023/08/30 09:54:13;;;;;;;1.20;1.20;;;16.00;99.90;;;;;;5129773;27;20051;-91
2023/08/30 09:56:40;;;;;;;1.20;1.20;;;16.00;99.90;;;;;;5109495;27;20537;-89
2023/08/30 09:59:06;;;;;;;1.30;1.30;;;16.10;99.90;;;;;;5104791;27;20062;-88
2023/08/30 10:01:32;;;;;;;1.30;1.30;;;16.10;99.90;;;;;;5124652;27;20046;-86
2023/08/30 10:03:59;;;;;;;1.50;1.40;;;16.30;99.90;;;;;;5109701;27;20033;-87
2023/08/30 10:06:26;;;;;;;1.80;1.70;;;16.20;99.90;;;;;;5131212;27;20043;-89
2023/08/30 10:08:56;;;;;;;1.52;1.42;;;16.30;99.90;;;;;;5099555;27;20046;-88
2023/08/30 10:11:23;;;;;;;1.70;1.60;;;16.30;99.90;;;;;;5105163;27;20482;-86
2023/08/30 10:13:55;;;;;;;1.70;1.60;;;16.50;99.90;;;;;;5106276;27;20043;-87
2023/08/30 10:16:24;;;;;;;1.52;1.42;;;16.90;99.90;;;;;;5127600;27;20426;-87
2023/08/30 10:19:04;;;;;;;1.83;1.73;;;17.20;99.90;;;;;;5130745;27;20075;-88
2023/08/30 10:21:30;;;;;;;1.73;1.63;;;17.20;99.90;;;;;;5128067;27;20050;-85
2023/08/30 10:23:57;;;;;;;1.85;1.75;;;17.40;99.90;;;;;;5127115;27;20048;-86
2023/08/30 10:26:26;;;;;;;1.60;1.50;;;17.60;99.90;;;;;;5126867;27;20043;-85
2023/08/30 10:28:56;;;;;;;1.30;1.30;;;17.40;99.90;;;;;;5102875;27;20126;-87
2023/08/30 10:31:28;;;;;;;1.10;1.10;;;17.40;99.90;;;;;;5112393;27;20488;-91
2023/08/30 10:33:54;;;;;;;1.02;1.02;;;17.20;99.90;;;;;;5107393;27;20034;-88
2023/08/30 10:36:26;;;;;;;1.40;1.35;;;17.10;99.90;;;;;;5121210;27;20071;-86
2023/08/30 10:38:55;;;;;;;1.90;1.80;;;16.90;99.90;;;;;;5120007;27;20401;-86
2023/08/30 10:41:25;;;;;;;2.20;2.10;;;16.80;99.90;;;;;;5125563;27;20046;-88
2023/08/30 10:43:52;;;;;;;1.85;1.75;;;16.70;99.90;;;;;;5098965;27;20075;-87
2023/08/30 10:46:33;;;;;;;1.90;1.80;;;16.70;99.90;;;;;;5109106;27;20049;-86
2023/08/30 10:49:09;;;;;;;1.70;1.60;;;16.80;99.90;;;;;;5103639;27;20058;-85
2023/08/30 10:51:40;;;;;;;1.85;1.75;;;16.70;99.90;;;;;;5117831;27;20325;-86
2023/08/30 10:54:16;;;;;;;1.70;1.60;;;16.70;99.90;;;;;;5122348;27;20057;-85
2023/08/30 10:57:00;;;;;;;2.10;2.00;;;16.60;99.90;;;;;;5106993;27;20046;-87
2023/08/30 10:59:26;;;;;;;1.90;1.80;;;16.60;99.90;;;;;;5107260;27;20122;-84
2023/08/30 11:01:52;;;;;;;2.20;2.10;;;16.60;99.90;;;;;;5124572;27;20046;-83
2023/08/30 11:04:19;;;;;;;1.92;1.83;;;16.60;99.90;;;;;;5123785;27;20123;-83
2023/08/30 11:06:46;;;;;;;2.30;2.10;;;16.40;99.90;;;;;;5111177;27;20957;-83
2023/08/30 11:09:23;;;;;;;2.08;1.98;;;16.50;99.90;;;;;;5121978;27;20137;-84
2023/08/30 11:11:50;;;;;;;2.20;2.10;;;16.50;99.90;;;;;;5122263;27;20047;-84
2023/08/30 11:14:17;;;;;;;1.95;1.85;;;16.40;99.90;;;;;;5125114;27;20118;-84
2023/08/30 11:16:43;;;;;;;2.20;2.10;;;16.30;99.90;;;;;;5119151;27;20039;-84
2023/08/30 11:19:11;;;;;;;2.40;2.30;;;16.50;99.90;;;;;;5108354;27;20042;-83
2023/08/30 11:21:38;;;;;;;2.20;2.10;;;16.30;99.90;;;;;;5135321;27;20070;-84
2023/08/30 11:24:05;;;;;;;2.33;2.22;;;16.50;99.90;;;;;;5114910;27;20043;-83
2023/08/30 11:26:31;;;;;;;2.20;2.10;;;16.50;99.90;;;;;;5128543;27;20147;-82
2023/08/30 11:28:56;;;;;;;2.13;2.03;;;16.30;99.90;;;;;;5129128;27;20552;-83
2023/08/30 11:31:27;;;;;;;2.28;2.17;;;16.10;99.90;;;;;;5104809;27;20519;-84
2023/08/30 11:33:58;;;;;;;2.08;1.98;;;16.10;99.90;;;;;;5112461;27;20057;-85
2023/08/30 11:36:28;;;;;;;2.28;2.17;;;16.30;99.90;;;;;;5122735;27;20051;-84
2023/08/30 11:38:54;;;;;;;2.30;2.20;;;16.50;99.90;;;;;;5104994;27;20039;-84
2023/08/30 11:41:20;;;;;;;2.17;2.08;;;16.40;99.90;;;;;;5125165;27;20054;-83
2023/08/30 11:43:48;;;;;;;2.10;2.00;;;16.20;99.90;;;;;;5127185;27;20050;-84
2023/08/30 11:46:14;;;;;;;2.20;2.10;;;16.20;99.90;;;;;;5129074;27;20046;-85
2023/08/30 11:48:41;;;;;;;1.80;1.70;;;16.20;99.90;;;;;;5131336;27;20043;-86
2023/08/30 11:51:07;;;;;;;1.73;1.63;;;16.10;99.90;;;;;;5128475;27;20737;-84
2023/08/30 11:53:34;;;;;;;2.00;1.90;;;16.00;99.90;;;;;;5127405;27;20071;-87
2023/08/30 11:56:00;;;;;;;2.10;2.00;;;16.00;99.90;;;;;;5109697;27;20046;-87
2023/08/30 11:58:26;;;;;;;2.17;2.08;;;15.90;99.90;;;;;;5121766;27;20057;-86
2023/08/30 12:00:54;;;;;;;2.28;2.17;;;16.10;99.90;;;;;;5126254;27;20043;-87
2023/08/30 12:03:23;;;;;;;2.33;2.22;;;16.30;99.90;;;;;;5106080;27;20082;-87
2023/08/30 12:05:50;;;;;;;2.25;2.15;;;16.30;99.90;;;;;;5114518;27;20059;-86
2023/08/30 12:08:30;;;;;;;2.30;2.20;;;16.10;99.90;;;;;;5126680;27;20078;-86
2023/08/30 12:10:57;;;;;;;2.30;2.20;;;15.90;99.90;;;;;;5121244;27;20046;-86
2023/08/30 12:13:31;;;;;;;2.30;2.20;;;15.90;99.90;;;;;;5125784;27;20089;-87
2023/08/30 12:15:58;;;;;;;2.47;2.38;;;15.90;99.90;;;;;;5127360;27;20031;-87
2023/08/30 12:18:27;;;;;;;2.30;2.20;;;16.50;99.90;;;;;;5129600;27;20661;-86
2023/08/30 12:21:04;;;;;;;2.40;2.30;;;16.30;99.90;;;;;;5106577;27;20043;-85
2023/08/30 12:23:32;;;;;;;2.17;2.08;;;16.20;99.90;;;;;;5124773;27;20047;-89
2023/08/30 12:25:58;;;;;;;2.00;1.90;;;16.50;99.90;;;;;;5116736;27;20077;-86
2023/08/30 12:28:28;;;;;;;1.92;1.83;;;16.40;99.90;;;;;;5127879;27;20041;-87
2023/08/30 12:30:55;;;;;;;1.90;1.80;;;16.50;99.90;;;;;;5118208;27;20107;-86
2023/08/30 12:33:21;;;;;;;2.10;2.00;;;16.20;99.90;;;;;;5126641;27;20133;-87
2023/08/30 12:35:47;;;;;;;1.90;1.80;;;16.50;99.90;;;;;;5112285;27;20088;-86
2023/08/30 12:38:18;;;;;;;1.70;1.60;;;16.60;99.90;;;;;;5114079;27;20066;-87
2023/08/30 12:40:47;;;;;;;1.70;1.60;;;16.80;99.90;;;;;;5128967;27;20516;-93
2023/08/30 12:43:13;;;;;;;1.70;1.60;;;16.70;99.90;;;;;;5107937;27;20054;-90
2023/08/30 12:45:40;;;;;;;1.85;1.75;;;16.60;99.90;;;;;;5110366;27;20047;-86
2023/08/30 12:48:07;;;;;;;1.60;1.50;;;16.70;99.90;;;;;;5110816;27;20505;-88
2023/08/30 12:50:35;;;;;;;1.75;1.65;;;16.60;99.90;;;;;;5126589;27;20063;-89
2023/08/30 12:53:01;;;;;;;1.85;1.75;;;16.60;99.90;;;;;;5108442;27;20047;-87